Time;durP1;ratioP1;P1;durP2;ratioP2;P2;SDS_P1;SDS_P2;PMS_P1;PMS_P2;Temp;Humidity;BMP_temperature;BMP_pressure;BME280_temperature;BME280_humidity;BME280_pressure;Samples;Min_cycle;Max_cycle;Signal;HPM_P1;HPM_P2
2021/08/08 00:01:20;;;;;;;4.45;2.17;;;;;;;21.47;60.95;95702.70;1730030;82;21017;-85
2021/08/08 00:03:46;;;;;;;2.50;1.62;;;;;;;21.51;61.19;95708.27;1723929;82;20975;-86
2021/08/08 00:06:12;;;;;;;5.95;1.90;;;;;;;21.51;60.87;95716.20;1696243;82;20960;-86
2021/08/08 00:08:37;;;;;;;2.83;1.80;;;;;;;21.53;60.75;95728.08;1722688;82;20957;-85
2021/08/08 00:11:04;;;;;;;3.05;2.00;;;;;;;21.56;60.46;95724.11;1720556;82;20984;-85
2021/08/08 00:13:29;;;;;;;3.15;1.80;;;;;;;21.62;60.38;95724.88;1704643;82;21361;-85
2021/08/08 00:15:55;;;;;;;4.25;2.20;;;;;;;21.69;60.47;95738.64;1732536;82;20980;-86
2021/08/08 00:18:21;;;;;;;4.17;2.05;;;;;;;21.73;60.56;95725.93;1738137;82;20992;-85
2021/08/08 00:20:47;;;;;;;4.37;2.30;;;;;;;21.75;60.59;95708.47;1718846;82;20944;-85
2021/08/08 00:23:13;;;;;;;2.75;1.98;;;;;;;21.81;60.25;95714.03;1722324;82;20984;-86
2021/08/08 00:25:39;;;;;;;3.98;2.00;;;;;;;21.86;60.38;95720.62;1733015;82;20923;-85
2021/08/08 00:28:05;;;;;;;2.10;1.65;;;;;;;21.90;60.37;95721.66;1720561;82;20972;-85
2021/08/08 00:30:31;;;;;;;2.80;1.95;;;;;;;21.94;60.03;95717.41;1719184;81;20993;-86
2021/08/08 00:32:57;;;;;;;2.35;1.98;;;;;;;21.98;59.84;95722.97;1736639;82;21068;-86
2021/08/08 00:35:23;;;;;;;3.80;2.05;;;;;;;22.02;59.98;95742.00;1740517;82;20941;-85
2021/08/08 00:37:49;;;;;;;2.60;2.20;;;;;;;22.11;59.48;95743.04;1734399;82;20967;-86
2021/08/08 00:40:18;;;;;;;2.67;1.80;;;;;;;22.19;59.75;95737.73;1747019;82;20965;-85
2021/08/08 00:42:46;;;;;;;4.95;2.02;;;;;;;22.21;59.70;95743.55;1707753;82;20995;-85
2021/08/08 00:45:17;;;;;;;3.50;2.10;;;;;;;22.21;59.16;95731.64;1734246;82;20953;-86
2021/08/08 00:47:42;;;;;;;3.83;2.10;;;;;;;22.22;58.90;95743.02;1740266;82;20980;-85
2021/08/08 00:50:09;;;;;;;2.80;2.27;;;;;;;22.24;59.54;95743.53;1730138;82;20921;-86
2021/08/08 00:52:35;;;;;;;3.05;1.70;;;;;;;22.24;59.36;95746.18;1719720;82;21000;-86
2021/08/08 00:55:01;;;;;;;2.90;2.10;;;;;;;22.25;59.10;95739.82;1704878;83;20997;-86
2021/08/08 00:57:27;;;;;;;4.20;2.00;;;;;;;22.25;59.33;95745.11;1741617;82;21060;-86
2021/08/08 00:59:52;;;;;;;4.42;2.40;;;;;;;22.23;59.49;95763.13;1706738;82;21016;-85
2021/08/08 01:02:21;;;;;;;3.52;2.17;;;;;;;22.18;59.88;95757.33;1745458;82;20949;-85
2021/08/08 01:05:03;;;;;;;3.50;1.92;;;;;;;22.08;60.21;95757.34;1729366;82;20984;-86
2021/08/08 01:07:33;;;;;;;4.03;2.12;;;;;;;22.02;60.07;95765.80;1724757;82;20984;-85
2021/08/08 01:10:00;;;;;;;2.30;2.10;;;;;;;21.97;60.10;95761.86;1729003;82;20991;-85
2021/08/08 01:12:26;;;;;;;3.10;2.10;;;;;;;21.91;60.24;95762.91;1738017;81;20957;-85
2021/08/08 01:14:52;;;;;;;2.05;1.85;;;;;;;21.88;60.46;95770.06;1736655;81;21007;-85
2021/08/08 01:17:18;;;;;;;3.10;2.17;;;;;;;21.83;60.31;95754.22;1718851;81;21010;-85
2021/08/08 01:20:00;;;;;;;2.45;1.90;;;;;;;21.83;60.31;95754.22;1732106;82;21430;-85
2021/08/08 01:22:29;;;;;;;4.50;2.20;;;;;;;21.84;59.95;95759.77;1728652;82;21078;-85
2021/08/08 01:25:00;;;;;;;3.30;1.80;;;;;;;21.90;59.81;95749.42;1715729;82;20976;-85
2021/08/08 01:27:28;;;;;;;2.65;2.00;;;;;;;21.94;59.06;95731.95;1731335;82;21347;-85
2021/08/08 01:29:54;;;;;;;2.20;1.80;;;;;;;22.00;59.57;95724.81;1727104;82;20933;-85
2021/08/08 01:32:21;;;;;;;2.95;1.95;;;;;;;22.04;59.35;95706.02;1719323;81;20960;-86
2021/08/08 01:34:47;;;;;;;2.72;1.85;;;;;;;;;;1729808;82;20929;-85
2021/08/08 01:37:18;;;;;;;5.03;2.25;;;;;;;22.15;58.55;95679.81;1727219;81;21446;-85
2021/08/08 01:39:52;;;;;;;2.02;1.82;;;;;;;22.18;58.78;95693.82;1726826;81;21032;-85
2021/08/08 01:42:17;;;;;;;3.87;2.27;;;;;;;22.18;58.62;95673.98;1728072;81;21402;-85
2021/08/08 01:44:48;;;;;;;6.12;2.37;;;;;;;22.22;57.64;95670.25;1712867;82;21046;-86
2021/08/08 01:47:15;;;;;;;2.83;2.17;;;;;;;22.27;57.86;95657.77;1732408;81;21036;-86
2021/08/08 01:49:43;;;;;;;1.92;1.65;;;;;;;22.31;58.08;95656.72;1725835;82;20999;-86
2021/08/08 01:52:10;;;;;;;4.67;2.00;;;;;;;22.31;57.80;95669.42;1720607;81;20944;-86
2021/08/08 01:54:37;;;;;;;2.98;1.98;;;;;;;22.33;57.78;95675.76;1732140;82;20921;-86
2021/08/08 01:57:04;;;;;;;3.20;1.82;;;;;;;22.32;57.78;95671.00;1730051;82;21028;-85
2021/08/08 01:59:29;;;;;;;2.10;1.65;;;;;;;22.32;58.18;95679.47;1736723;81;20996;-86
2021/08/08 02:01:55;;;;;;;4.80;1.62;;;;;;;22.27;57.94;95694.82;1727157;81;21453;-86
2021/08/08 02:04:25;;;;;;;2.22;1.65;;;;;;;22.29;57.48;95695.87;1736598;82;21007;-86
2021/08/08 02:06:51;;;;;;;3.10;1.90;;;;;;;22.29;57.90;95687.42;1733001;82;21001;-86
2021/08/08 02:09:18;;;;;;;2.37;2.00;;;;;;;22.28;57.92;95706.98;1721651;81;20948;-86
2021/08/08 02:11:43;;;;;;;3.50;1.90;;;;;;;22.26;57.66;95706.47;1734506;82;20992;-85
2021/08/08 02:14:11;;;;;;;3.37;1.47;;;;;;;22.24;58.13;95727.66;1743301;80;20979;-86
2021/08/08 02:16:37;;;;;;;4.95;2.62;;;;;;;22.21;58.17;95733.50;1710782;82;20940;-85
2021/08/08 02:19:03;;;;;;;2.60;2.00;;;;;;;22.19;58.34;95730.33;1711131;82;20903;-86
2021/08/08 02:21:28;;;;;;;3.20;2.10;;;;;;;22.15;58.64;95744.11;1736092;82;20988;-86
2021/08/08 02:23:54;;;;;;;5.80;2.12;;;;;;;22.20;58.95;95756.52;1711335;82;20963;-86
2021/08/08 02:26:20;;;;;;;2.75;2.20;;;;;;;22.21;59.12;95757.31;1735308;81;20996;-85
2021/08/08 02:28:45;;;;;;;4.05;2.25;;;;;;;22.20;59.05;95773.72;1739477;82;21366;-85
2021/08/08 02:31:11;;;;;;;3.58;2.00;;;;;;;22.19;59.23;95768.16;1730380;82;21011;-86
2021/08/08 02:33:37;;;;;;;2.30;1.80;;;;;;;22.16;59.28;95787.23;1731583;82;21015;-85
2021/08/08 02:36:03;;;;;;;4.03;2.45;;;;;;;22.14;59.63;95799.94;1722482;80;21303;-86
2021/08/08 02:38:29;;;;;;;2.65;2.45;;;;;;;22.11;60.02;95784.58;1722901;81;20964;-86
2021/08/08 02:40:55;;;;;;;6.72;2.50;;;;;;;22.12;60.34;95789.59;1730143;82;21378;-86
2021/08/08 02:43:21;;;;;;;3.92;2.60;;;;;;;22.10;60.62;95803.63;1730751;80;20945;-86
2021/08/08 02:45:49;;;;;;;3.33;2.52;;;;;;;;;;1727461;82;20916;-86
2021/08/08 02:48:14;;;;;;;3.67;2.95;;;;;;;22.08;60.98;95829.56;1742492;82;21016;-86
2021/08/08 02:50:39;;;;;;;4.87;2.67;;;;;;;22.06;61.11;95828.25;1703862;82;21012;-86
2021/08/08 02:53:05;;;;;;;4.70;2.92;;;;;;;22.02;61.62;95850.45;1726980;81;21498;-86
2021/08/08 02:55:31;;;;;;;2.75;2.00;;;;;;;21.97;62.26;95863.70;1725474;82;21043;-86
2021/08/08 02:57:57;;;;;;;5.08;2.00;;;;;;;21.89;63.23;95876.12;1726075;80;21044;-85
2021/08/08 03:00:23;;;;;;;2.12;1.42;;;;;;;21.72;64.31;95891.45;1739865;80;21409;-85
2021/08/08 03:02:49;;;;;;;3.70;1.35;;;;;;;21.52;65.09;95907.56;1734451;81;21008;-85
2021/08/08 03:05:15;;;;;;;2.95;1.70;;;;;;;21.30;65.58;95903.53;1745663;80;21031;-85
2021/08/08 03:07:40;;;;;;;3.52;1.60;;;;;;;21.11;65.45;95909.27;1727079;82;20952;-85
2021/08/08 03:10:08;;;;;;;3.15;1.25;;;;;;;20.94;65.64;95912.64;1732050;80;20973;-85
2021/08/08 03:12:34;;;;;;;2.40;1.60;;;;;;;20.82;66.00;95924.73;1731454;80;21393;-85
2021/08/08 03:15:00;;;;;;;2.83;1.30;;;;;;;20.73;66.20;95942.12;1745107;82;21020;-85
2021/08/08 03:17:26;;;;;;;2.02;1.27;;;;;;;20.67;66.50;95943.16;1714409;82;21043;-85
2021/08/08 03:19:51;;;;;;;3.98;1.10;;;;;;;20.60;66.66;95962.37;1723060;81;20950;-85
2021/08/08 03:22:17;;;;;;;2.52;1.02;;;;;;;20.49;67.32;95965.98;1719532;81;20891;-85
2021/08/08 03:24:43;;;;;;;1.90;0.88;;;;;;;20.32;69.12;95990.64;1713564;81;21292;-85
2021/08/08 03:27:09;;;;;;;1.62;0.60;;;;;;;20.32;69.12;95990.64;1719656;81;20996;-85
2021/08/08 03:29:35;;;;;;;1.15;0.75;;;;;;;20.12;67.79;96011.59;1727171;81;20957;-85
2021/08/08 03:32:01;;;;;;;1.42;0.70;;;;;;;19.93;68.08;96030.14;1691543;83;20996;-85
2021/08/08 03:34:26;;;;;;;1.60;0.50;;;;;;;19.75;68.62;96035.23;1720151;81;21315;-84
2021/08/08 03:36:52;;;;;;;0.82;0.40;;;;;;;19.61;69.19;96035.34;1700457;83;20992;-85
2021/08/08 03:39:20;;;;;;;1.90;0.42;;;;;;;19.45;69.05;96034.33;1715118;83;20914;-84
2021/08/08 03:41:45;;;;;;;3.45;0.57;;;;;;;19.34;69.12;96026.82;1710956;82;20982;-85
2021/08/08 03:44:11;;;;;;;2.35;1.35;;;;;;;19.28;69.28;96032.28;1707741;82;20980;-85
2021/08/08 03:46:37;;;;;;;1.15;0.70;;;;;;;19.24;69.60;96041.72;1732985;80;20949;-85
2021/08/08 03:49:03;;;;;;;1.82;0.60;;;;;;;19.16;69.34;96046.88;1717538;82;21008;-85
2021/08/08 03:51:28;;;;;;;0.82;0.53;;;;;;;19.07;69.81;96052.30;1725027;81;20944;-85
2021/08/08 03:53:54;;;;;;;1.62;0.60;;;;;;;18.98;69.37;96049.27;1718224;81;21045;-85
2021/08/08 03:56:20;;;;;;;0.82;0.45;;;;;;;18.89;69.48;96065.22;1724739;81;21371;-85
2021/08/08 03:58:46;;;;;;;1.42;0.70;;;;;;;18.80;69.57;96071.39;1714477;81;20981;-85
2021/08/08 04:01:12;;;;;;;1.07;0.82;;;;;;;18.69;69.26;96074.90;1720863;81;21390;-85
2021/08/08 04:03:38;;;;;;;0.60;0.40;;;;;;;18.60;69.47;96069.23;1724670;81;20913;-85
2021/08/08 04:06:03;;;;;;;1.52;0.50;;;;;;;18.53;69.40;96060.68;1720454;81;20980;-85
2021/08/08 04:08:29;;;;;;;2.67;0.78;;;;;;;18.48;69.85;96057.18;1685002;83;21303;-85
2021/08/08 04:10:55;;;;;;;1.72;0.70;;;;;;;18.47;69.68;96056.91;1715398;81;20969;-85
2021/08/08 04:13:21;;;;;;;3.58;0.93;;;;;;;18.41;69.90;96063.13;1722935;81;21101;-85
2021/08/08 04:15:47;;;;;;;1.50;0.95;;;;;;;18.34;69.47;96071.67;1723894;81;20924;-85
2021/08/08 04:18:13;;;;;;;0.98;0.47;;;;;;;18.24;69.57;96079.69;1712366;81;21001;-85
2021/08/08 04:20:40;;;;;;;3.15;1.05;;;;;;;18.16;69.71;96075.31;1712309;81;21053;-84
2021/08/08 04:23:07;;;;;;;2.12;0.80;;;;;;;18.11;70.08;96083.92;1724742;82;20980;-85
2021/08/08 04:25:33;;;;;;;1.40;0.88;;;;;;;18.07;70.07;96083.33;1720950;82;21055;-85
2021/08/08 04:27:59;;;;;;;0.98;0.68;;;;;;;18.03;70.20;96090.06;1720959;80;20987;-85
2021/08/08 04:30:25;;;;;;;6.60;5.65;;;;;;;18.01;70.38;96095.56;1703132;82;21036;-85
2021/08/08 04:32:53;;;;;;;1.00;0.90;;;;;;;17.96;70.41;96096.27;1726634;80;21335;-84
2021/08/08 04:35:19;;;;;;;0.53;0.33;;;;;;;17.92;70.60;96111.44;1737110;80;20972;-85
2021/08/08 04:37:44;;;;;;;0.90;0.62;;;;;;;17.88;70.50;96115.55;1690971;83;21035;-84
2021/08/08 04:40:11;;;;;;;0.70;0.40;;;;;;;17.82;70.68;96125.17;1733173;80;20944;-85
2021/08/08 04:42:38;;;;;;;2.20;1.40;;;;;;;17.77;70.73;96132.17;1695074;82;20990;-85
2021/08/08 04:45:05;;;;;;;6.30;5.70;;;;;;;17.73;71.12;96144.95;1706861;82;21012;-84
2021/08/08 04:47:31;;;;;;;1.72;1.10;;;;;;;17.71;71.13;96153.58;1706188;82;21010;-85
2021/08/08 04:49:56;;;;;;;1.70;0.90;;;;;;;17.70;71.48;96154.09;1713074;82;20957;-85
2021/08/08 04:52:23;;;;;;;1.15;0.80;;;;;;;17.69;71.69;96150.39;1702207;82;20946;-85
2021/08/08 04:54:49;;;;;;;0.90;0.45;;;;;;;17.67;71.95;96145.34;1699670;82;21033;-85
2021/08/08 04:57:15;;;;;;;0.50;0.30;;;;;;;17.65;72.06;96147.41;1705432;82;21439;-85
2021/08/08 04:59:41;;;;;;;0.70;0.45;;;;;;;17.65;71.92;96153.17;1722939;82;20975;-85
2021/08/08 05:02:07;;;;;;;0.85;0.45;;;;;;;17.64;72.28;96147.64;1707534;83;21328;-84
2021/08/08 05:04:32;;;;;;;1.45;0.60;;;;;;;17.62;71.44;96144.45;1712392;82;21011;-84
2021/08/08 05:06:58;;;;;;;1.15;0.60;;;;;;;17.59;71.39;96144.91;1697116;82;20952;-84
2021/08/08 05:09:24;;;;;;;1.30;0.42;;;;;;;17.60;71.29;96144.68;1722044;80;20944;-85
2021/08/08 05:11:51;;;;;;;1.72;0.85;;;;;;;17.60;71.39;96147.31;1711743;83;21428;-85
2021/08/08 05:14:16;;;;;;;0.80;0.47;;;;;;;17.59;71.31;96140.45;1705194;83;21030;-85
2021/08/08 05:16:42;;;;;;;0.40;0.30;;;;;;;17.64;71.29;96141.07;1716267;82;21362;-85
2021/08/08 05:19:08;;;;;;;0.40;0.33;;;;;;;17.68;71.14;96135.66;1691902;84;20985;-85
2021/08/08 05:21:34;;;;;;;1.15;0.55;;;;;;;17.72;71.18;96141.23;1691256;83;20990;-84
2021/08/08 05:24:00;;;;;;;1.15;0.53;;;;;;;17.70;71.07;96142.27;1704747;83;20968;-85
2021/08/08 05:26:26;;;;;;;0.95;0.60;;;;;;;17.73;71.08;96135.75;1703983;83;21357;-85
2021/08/08 05:28:52;;;;;;;1.05;0.70;;;;;;;17.75;71.06;96144.74;1716180;82;21026;-85
2021/08/08 05:31:17;;;;;;;0.72;0.50;;;;;;;17.78;71.12;96152.95;1701043;82;21306;-85
2021/08/08 05:33:43;;;;;;;1.40;0.80;;;;;;;17.79;70.97;96162.95;1720652;83;21394;-85
2021/08/08 05:36:09;;;;;;;1.42;0.65;;;;;;;17.82;71.05;96167.73;1721994;83;21041;-85
2021/08/08 05:38:34;;;;;;;0.70;0.50;;;;;;;17.83;70.78;96176.70;1709939;83;20974;-84
2021/08/08 05:41:00;;;;;;;0.80;0.50;;;;;;;17.87;70.88;96184.91;1698211;82;20961;-85
2021/08/08 05:43:26;;;;;;;1.10;0.70;;;;;;;17.92;71.10;96184.52;1701066;84;21322;-84
2021/08/08 05:45:52;;;;;;;1.30;0.50;;;;;;;17.95;71.06;96188.00;1698631;84;20944;-85
2021/08/08 05:48:17;;;;;;;0.88;0.60;;;;;;;17.95;70.67;96189.83;1658420;84;20956;-85
2021/08/08 05:50:43;;;;;;;1.00;0.57;;;;;;;17.96;71.04;96199.30;1701059;82;21351;-84
2021/08/08 05:53:09;;;;;;;1.10;0.60;;;;;;;17.95;71.17;96202.45;1706679;82;20968;-85
2021/08/08 05:55:36;;;;;;;1.02;0.72;;;;;;;18.01;71.35;96207.28;1695252;82;20989;-85
2021/08/08 05:58:02;;;;;;;1.25;0.47;;;;;;;18.06;70.89;96203.95;1724953;82;20937;-84
2021/08/08 06:00:28;;;;;;;0.85;0.55;;;;;;;18.09;70.91;96221.40;1726107;82;20956;-85
2021/08/08 06:02:53;;;;;;;0.60;0.50;;;;;;;18.14;70.96;96229.38;1711518;83;20986;-85
2021/08/08 06:05:19;;;;;;;1.27;0.37;;;;;;;18.18;70.57;96229.70;1697065;82;21005;-85
2021/08/08 06:07:45;;;;;;;0.82;0.45;;;;;;;18.19;70.27;96235.25;1696870;82;20925;-84
2021/08/08 06:10:11;;;;;;;1.07;0.40;;;;;;;18.18;70.32;96227.08;1702916;82;20925;-84
2021/08/08 06:12:37;;;;;;;0.98;0.40;;;;;;;18.17;70.34;96232.85;1726947;81;20976;-84
2021/08/08 06:15:03;;;;;;;1.10;0.53;;;;;;;18.17;70.32;96239.95;1731939;81;20969;-85
2021/08/08 06:17:32;;;;;;;0.33;0.23;;;;;;;18.20;70.27;96257.36;1709603;82;21281;-85
2021/08/08 06:19:58;;;;;;;1.17;0.75;;;;;;;18.22;69.90;96251.87;1737490;81;21068;-84
2021/08/08 06:22:23;;;;;;;0.68;0.40;;;;;;;18.18;70.01;96264.69;1698654;82;21013;-85
2021/08/08 06:24:50;;;;;;;0.47;0.30;;;;;;;18.16;70.05;96272.53;1743342;82;21008;-84
2021/08/08 06:27:15;;;;;;;2.40;0.40;;;;;;;18.11;70.54;96280.33;1739471;81;20964;-85
2021/08/08 06:29:41;;;;;;;0.50;0.30;;;;;;;17.98;70.56;96280.84;1732622;81;20968;-84
2021/08/08 06:32:07;;;;;;;0.62;0.40;;;;;;;17.89;70.62;96290.09;1730729;80;20944;-84
2021/08/08 06:34:33;;;;;;;0.60;0.20;;;;;;;17.82;71.51;96287.31;1730356;81;21351;-84
2021/08/08 06:36:58;;;;;;;0.55;0.30;;;;;;;17.76;71.52;96288.24;1738284;82;20952;-84
2021/08/08 06:39:24;;;;;;;0.85;0.45;;;;;;;17.70;71.91;96288.63;1722732;80;20960;-84
2021/08/08 06:41:50;;;;;;;0.90;0.50;;;;;;;17.69;71.90;96283.88;1741319;81;21271;-84
2021/08/08 06:44:15;;;;;;;1.20;0.60;;;;;;;17.69;72.27;96279.94;1726144;80;20940;-85
2021/08/08 06:46:41;;;;;;;1.20;0.68;;;;;;;17.73;71.93;96275.02;1741112;80;20985;-84
2021/08/08 06:49:07;;;;;;;0.62;0.30;;;;;;;17.78;72.17;96270.41;1725491;82;21385;-85
2021/08/08 06:51:33;;;;;;;0.93;0.50;;;;;;;17.81;71.54;96273.37;1726953;80;20941;-85
2021/08/08 06:53:58;;;;;;;1.67;0.33;;;;;;;17.82;71.86;96273.66;1727325;82;20954;-85
2021/08/08 06:56:24;;;;;;;0.40;0.40;;;;;;;17.90;71.60;96276.47;1732203;82;21047;-85
2021/08/08 06:59:21;;;;;;;0.68;0.30;;;;;;;17.95;71.28;96268.17;1727479;82;20948;-84
2021/08/08 07:01:47;;;;;;;1.20;0.88;;;;;;;18.03;70.99;96274.09;1730651;81;20961;-85
2021/08/08 07:04:13;;;;;;;0.90;0.60;;;;;;;18.14;70.54;96273.28;1728860;80;20956;-84
2021/08/08 07:06:39;;;;;;;1.20;0.50;;;;;;;18.28;70.19;96269.37;1723324;81;21360;-84
2021/08/08 07:09:07;;;;;;;0.55;0.35;;;;;;;18.40;69.45;96268.03;1728380;80;20945;-84
2021/08/08 07:11:32;;;;;;;0.62;0.50;;;;;;;18.50;69.99;96270.32;1738564;82;22362;-84
2021/08/08 07:13:58;;;;;;;3.72;3.33;;;;;;;18.62;69.38;96272.13;1699365;83;21047;-85
2021/08/08 07:16:24;;;;;;;3.45;2.27;;;;;;;18.67;68.84;96265.14;1708689;82;21003;-84
2021/08/08 07:18:50;;;;;;;4.20;3.55;;;;;;;18.77;68.42;96269.80;1676951;83;21037;-84
2021/08/08 07:21:16;;;;;;;1.87;1.47;;;;;;;18.86;68.87;96282.84;1671622;84;21027;-84
2021/08/08 07:23:42;;;;;;;1.10;0.70;;;;;;;18.97;68.26;96280.69;1660083;84;20939;-84
2021/08/08 07:26:07;;;;;;;11.73;10.70;;;;;;;19.10;67.75;96282.23;1727628;81;21343;-84
2021/08/08 07:28:33;;;;;;;2.80;1.80;;;;;;;19.18;67.19;96283.94;1705513;82;21306;-84
2021/08/08 07:30:59;;;;;;;2.00;1.10;;;;;;;19.22;67.03;96283.48;1726701;82;20937;-84
2021/08/08 07:33:25;;;;;;;2.83;2.12;;;;;;;19.28;67.42;96284.64;1704817;83;20959;-84
2021/08/08 07:35:51;;;;;;;21.02;19.23;;;;;;;19.36;67.14;96278.99;1724956;81;20925;-84
2021/08/08 07:38:17;;;;;;;11.12;10.23;;;;;;;19.42;66.87;96282.49;1714624;83;21326;-84
2021/08/08 07:40:43;;;;;;;6.20;5.70;;;;;;;19.44;66.54;96287.00;1734266;82;21016;-84
2021/08/08 07:43:08;;;;;;;12.23;11.33;;;;;;;19.48;66.44;96284.16;1706022;83;20994;-84
2021/08/08 07:45:34;;;;;;;3.10;2.90;;;;;;;19.55;66.05;96285.36;1726618;82;20992;-84
2021/08/08 07:48:00;;;;;;;3.75;2.75;;;;;;;19.62;66.61;96275.45;1709080;82;20978;-84
2021/08/08 07:50:26;;;;;;;4.58;4.17;;;;;;;19.71;66.43;96264.78;1689409;82;20955;-84
2021/08/08 07:52:51;;;;;;;2.05;1.90;;;;;;;19.75;66.06;96268.00;1705505;84;20945;-84
2021/08/08 07:55:17;;;;;;;1.98;0.78;;;;;;;19.78;65.47;96271.99;1695837;84;21004;-85
2021/08/08 07:57:43;;;;;;;0.85;0.62;;;;;;;19.71;65.40;96261.63;1703982;82;20993;-84
2021/08/08 08:00:09;;;;;;;1.45;1.17;;;;;;;19.65;64.28;96253.35;1728031;81;21004;-84
2021/08/08 08:02:35;;;;;;;1.20;1.10;;;;;;;19.65;64.28;96253.35;1712078;82;21018;-85
2021/08/08 08:05:01;;;;;;;0.90;0.60;;;;;;;19.73;65.28;96260.06;1707683;82;21070;-85
2021/08/08 08:07:27;;;;;;;1.47;0.70;;;;;;;19.84;65.45;96264.94;1717278;82;21496;-85
2021/08/08 08:09:53;;;;;;;5.50;5.10;;;;;;;19.86;64.19;96266.84;1714318;81;20947;-85
2021/08/08 08:12:18;;;;;;;2.72;2.52;;;;;;;19.90;64.74;96262.67;1709967;82;20939;-85
2021/08/08 08:14:44;;;;;;;1.90;1.40;;;;;;;19.93;64.78;96256.38;1712037;82;21030;-85
2021/08/08 08:17:10;;;;;;;2.08;1.87;;;;;;;19.98;64.04;96266.20;1691222;83;20975;-85
2021/08/08 08:19:36;;;;;;;1.22;0.68;;;;;;;19.97;64.64;96275.95;1711493;82;21278;-85
2021/08/08 08:22:02;;;;;;;1.15;0.60;;;;;;;19.97;64.54;96278.58;1717201;82;21097;-85
2021/08/08 08:24:27;;;;;;;0.62;0.50;;;;;;;20.03;64.87;96291.34;1688702;83;21329;-85
2021/08/08 08:26:53;;;;;;;0.75;0.60;;;;;;;20.13;64.20;96289.34;1680689;85;20987;-85
2021/08/08 08:29:20;;;;;;;1.10;0.70;;;;;;;20.30;64.64;96289.56;1724513;81;20940;-84
2021/08/08 08:31:46;;;;;;;0.80;0.50;;;;;;;20.51;63.50;96308.34;1714170;82;20992;-86
2021/08/08 08:34:12;;;;;;;1.15;0.60;;;;;;;20.53;63.24;96307.05;1731319;81;20933;-86
2021/08/08 08:36:37;;;;;;;0.90;0.50;;;;;;;20.52;63.72;96300.69;1721774;82;20937;-86
2021/08/08 08:39:03;;;;;;;0.85;0.53;;;;;;;20.72;64.00;96297.48;1730606;81;21385;-85
2021/08/08 08:41:30;;;;;;;0.98;0.65;;;;;;;20.88;63.02;96314.56;1708158;81;20987;-86
2021/08/08 08:43:58;;;;;;;0.90;0.50;;;;;;;21.02;63.67;96308.36;1710407;82;21363;-86
2021/08/08 08:46:24;;;;;;;0.80;0.60;;;;;;;21.26;63.09;96317.59;1714361;82;21353;-87
2021/08/08 08:48:54;;;;;;;1.85;0.70;;;;;;;21.49;60.21;96304.59;1721135;82;20945;-85
2021/08/08 08:51:28;;;;;;;1.10;0.50;;;;;;;21.65;61.37;96296.25;1718365;82;20956;-85
2021/08/08 08:53:54;;;;;;;1.07;0.50;;;;;;;21.82;60.88;96299.55;1714818;82;20928;-88
2021/08/08 08:56:20;;;;;;;0.72;0.47;;;;;;;21.95;61.38;96303.57;1731756;82;21323;-88
2021/08/08 08:58:46;;;;;;;1.20;0.50;;;;;;;21.97;59.60;96294.88;1723593;82;21020;-86
2021/08/08 09:01:12;;;;;;;1.00;0.70;;;;;;;21.92;59.97;96302.77;1727869;81;20964;-84
2021/08/08 09:03:37;;;;;;;1.02;0.60;;;;;;;21.92;60.03;96304.09;1717120;81;21430;-86
2021/08/08 09:06:04;;;;;;;1.52;0.95;;;;;;;21.95;60.01;96301.45;1721677;81;21080;-84
2021/08/08 09:08:30;;;;;;;0.65;0.60;;;;;;;21.99;60.41;96300.70;1724422;82;21307;-85
2021/08/08 09:11:04;;;;;;;0.88;0.50;;;;;;;22.03;60.55;96293.84;1710280;82;20995;-84
2021/08/08 09:13:31;;;;;;;1.00;0.62;;;;;;;22.04;60.34;96299.41;1726839;82;21055;-85
2021/08/08 09:15:57;;;;;;;0.78;0.70;;;;;;;22.08;59.36;96307.13;1721078;81;21438;-85
2021/08/08 09:18:23;;;;;;;0.85;0.50;;;;;;;22.06;59.02;96298.65;1721553;81;21044;-84
2021/08/08 09:20:50;;;;;;;1.40;1.10;;;;;;;22.08;59.13;96299.19;1727595;81;21059;-84
2021/08/08 09:23:16;;;;;;;1.50;0.90;;;;;;;22.15;59.47;96296.33;1734184;81;21453;-85
2021/08/08 09:25:55;;;;;;;1.05;0.82;;;;;;;22.22;58.36;96300.05;1726293;82;21004;-85
2021/08/08 09:28:29;;;;;;;1.05;0.70;;;;;;;22.22;58.85;96301.38;1724673;82;20940;-85
2021/08/08 09:30:54;;;;;;;0.90;0.60;;;;;;;22.26;58.94;96297.95;1724052;82;21000;-84
2021/08/08 09:33:20;;;;;;;12.95;6.03;;;;;;;22.35;59.33;96316.80;1738406;82;20941;-85
2021/08/08 09:35:50;;;;;;;31.33;15.48;;;;;;;22.44;59.07;96313.92;1716164;82;21323;-85
2021/08/08 09:38:15;;;;;;;58.73;27.22;;;;;;;22.51;59.92;96322.97;1689410;82;21371;-85
2021/08/08 09:40:42;;;;;;;7.60;3.42;;;;;;;22.56;60.04;96330.39;1716617;81;20996;-85
2021/08/08 09:43:10;;;;;;;2.05;1.00;;;;;;;22.66;59.23;96338.92;1714610;81;21023;-85
2021/08/08 09:45:43;;;;;;;1.47;0.57;;;;;;;22.66;57.33;96337.06;1728192;82;20987;-85
2021/08/08 09:48:11;;;;;;;61.42;29.27;;;;;;;22.69;58.20;96342.36;1736835;82;20980;-85
2021/08/08 09:50:40;;;;;;;4.22;1.92;;;;;;;22.69;59.37;96359.05;1726085;81;20948;-85
2021/08/08 09:53:17;;;;;;;3.98;1.75;;;;;;;22.55;58.00;96363.75;1731711;81;20981;-85
2021/08/08 09:55:43;;;;;;;1.87;0.85;;;;;;;22.36;58.60;96362.86;1731709;81;20949;-85
2021/08/08 09:58:23;;;;;;;1.65;1.00;;;;;;;22.34;58.03;96366.83;1723405;81;20953;-85
2021/08/08 10:00:49;;;;;;;3.25;1.77;;;;;;;22.37;58.20;96367.63;1730873;81;20976;-85
2021/08/08 10:03:15;;;;;;;1.47;0.70;;;;;;;22.31;58.98;96371.31;1714749;82;21339;-85
2021/08/08 10:05:43;;;;;;;1.27;0.65;;;;;;;22.28;58.42;96375.25;1743356;82;20953;-85
2021/08/08 10:08:12;;;;;;;1.47;0.93;;;;;;;22.28;59.25;96371.27;1730450;81;20969;-85
2021/08/08 10:10:39;;;;;;;1.57;0.78;;;;;;;22.27;58.89;96374.18;1728747;81;20989;-84
2021/08/08 10:13:22;;;;;;;1.15;0.60;;;;;;;22.25;58.21;96379.73;1727023;81;21143;-85
2021/08/08 10:15:51;;;;;;;1.22;0.50;;;;;;;22.21;58.58;96388.45;1731351;82;20968;-85
2021/08/08 10:18:17;;;;;;;2.15;1.27;;;;;;;22.11;58.73;96378.05;1730472;81;21001;-85
2021/08/08 10:20:43;;;;;;;1.27;0.80;;;;;;;22.11;59.72;96386.52;1739649;82;20945;-85
2021/08/08 10:23:14;;;;;;;1.30;0.70;;;;;;;22.11;59.03;96386.52;1734383;81;21351;-85
2021/08/08 10:25:46;;;;;;;;;;;;;;;22.02;59.51;96384.05;1731938;81;21351;-85
2021/08/08 10:28:12;;;;;;;1.55;0.80;;;;;;;22.00;59.83;96381.67;1722352;81;20109;-85
2021/08/08 10:30:38;;;;;;;1.00;0.65;;;;;;;22.15;60.17;96384.45;1693164;82;21020;-85
2021/08/08 10:33:07;;;;;;;0.90;0.60;;;;;;;22.21;59.14;96387.13;1741013;81;21311;-85
2021/08/08 10:35:40;;;;;;;0.60;0.50;;;;;;;22.21;58.75;96388.45;1734557;82;21437;-85
2021/08/08 10:38:06;;;;;;;0.80;0.53;;;;;;;22.18;59.31;96371.76;1730936;81;20976;-85
2021/08/08 10:40:32;;;;;;;1.75;0.60;;;;;;;22.27;60.41;96372.86;1729462;82;20963;-85
2021/08/08 10:43:00;;;;;;;0.95;0.60;;;;;;;22.41;59.67;96377.45;1724169;82;20948;-85
2021/08/08 10:45:32;;;;;;;2.77;0.60;;;;;;;22.59;60.26;96377.53;1728619;81;20943;-85
2021/08/08 10:48:06;;;;;;;0.70;0.42;;;;;;;22.84;59.17;96389.34;1722811;81;21284;-84
2021/08/08 10:50:45;;;;;;;0.70;0.53;;;;;;;22.79;57.83;96384.00;1724509;81;20976;-84
2021/08/08 10:53:26;;;;;;;0.80;0.60;;;;;;;22.58;57.38;96394.48;1729188;82;21005;-83
2021/08/08 10:56:08;;;;;;;2.55;0.90;;;;;;;22.42;58.30;96393.59;1721483;82;21016;-84
2021/08/08 10:58:37;;;;;;;0.75;0.55;;;;;;;22.40;58.50;96396.23;1722009;82;21032;-84
2021/08/08 11:01:21;;;;;;;1.15;0.50;;;;;;;22.54;59.73;96393.41;1724344;82;21028;-84
2021/08/08 11:03:54;;;;;;;0.68;0.40;;;;;;;22.64;58.28;96398.77;1673303;83;20987;-84
2021/08/08 11:06:28;;;;;;;2.58;0.90;;;;;;;22.67;58.30;96398.24;1697435;83;21014;-83
2021/08/08 11:08:57;;;;;;;1.50;0.68;;;;;;;22.76;59.34;96398.00;1713156;82;21405;-86
2021/08/08 11:11:33;;;;;;;0.90;0.50;;;;;;;22.87;58.61;96394.11;1713925;82;20990;-86
2021/08/08 11:14:16;;;;;;;0.90;0.60;;;;;;;22.94;59.32;96399.46;1716453;82;21039;-84
2021/08/08 11:16:45;;;;;;;0.53;0.50;;;;;;;22.66;57.97;96397.18;1709892;82;20994;-83
2021/08/08 11:19:11;;;;;;;1.65;1.10;;;;;;;22.73;58.62;96393.23;1706665;82;21031;-84
2021/08/08 11:21:37;;;;;;;0.62;0.40;;;;;;;22.83;59.38;96403.64;1715320;82;21003;-84
2021/08/08 11:24:07;;;;;;;0.70;0.50;;;;;;;22.89;58.37;96402.07;1695759;83;21034;-85
2021/08/08 11:26:33;;;;;;;0.70;0.50;;;;;;;22.84;58.12;96397.29;1690276;83;21018;-84
2021/08/08 11:29:02;;;;;;;0.93;0.50;;;;;;;22.92;58.38;96398.09;1717904;82;21321;-84
2021/08/08 11:31:31;;;;;;;1.17;0.75;;;;;;;22.98;57.91;96393.11;1710336;82;20995;-84
2021/08/08 11:34:08;;;;;;;0.98;0.60;;;;;;;23.01;58.86;96393.91;1719686;82;20975;-84